sensor_id;sensor_type;location;lat;lon;timestamp;temperature;humidity
54832;DHT22;40730;53.068;6.572;2022-12-10T00:01:43;-1.20;99.90
54832;DHT22;40730;53.068;6.572;2022-12-10T00:04:10;-1.20;99.90
54832;DHT22;40730;53.068;6.572;2022-12-10T00:06:37;-1.20;99.90
54832;DHT22;40730;53.068;6.572;2022-12-10T00:09:05;-1.20;99.90
54832;DHT22;40730;53.068;6.572;2022-12-10T00:11:31;-1.10;99.90
54832;DHT22;40730;53.068;6.572;2022-12-10T00:13:58;-1.20;99.90
54832;DHT22;40730;53.068;6.572;2022-12-10T00:16:25;-1.20;99.90
54832;DHT22;40730;53.068;6.572;2022-12-10T00:18:51;-1.20;99.90
54832;DHT22;40730;53.068;6.572;2022-12-10T00:21:19;-1.20;99.90
54832;DHT22;40730;53.068;6.572;2022-12-10T00:23:46;-1.10;99.90
54832;DHT22;40730;53.068;6.572;2022-12-10T00:26:13;-1.20;99.90
54832;DHT22;40730;53.068;6.572;2022-12-10T00:28:40;-1.20;99.90
54832;DHT22;40730;53.068;6.572;2022-12-10T00:31:08;-1.20;99.90
54832;DHT22;40730;53.068;6.572;2022-12-10T00:33:34;-1.20;99.90
54832;DHT22;40730;53.068;6.572;2022-12-10T00:36:08;-1.30;99.90
54832;DHT22;40730;53.068;6.572;2022-12-10T00:38:34;-1.30;99.90
54832;DHT22;40730;53.068;6.572;2022-12-10T00:40:59;-1.30;99.90
54832;DHT22;40730;53.068;6.572;2022-12-10T00:43:26;-1.40;99.90
54832;DHT22;40730;53.068;6.572;2022-12-10T00:45:52;-1.40;99.90
54832;DHT22;40730;53.068;6.572;2022-12-10T00:48:18;-1.50;99.90
54832;DHT22;40730;53.068;6.572;2022-12-10T00:50:44;-1.50;99.90
54832;DHT22;40730;53.068;6.572;2022-12-10T00:53:09;-1.50;99.90
54832;DHT22;40730;53.068;6.572;2022-12-10T00:55:35;-1.60;99.90
54832;DHT22;40730;53.068;6.572;2022-12-10T00:58:00;-1.60;99.90
54832;DHT22;40730;53.068;6.572;2022-12-10T01:00:26;-1.60;99.90
54832;DHT22;40730;53.068;6.572;2022-12-10T01:02:53;-1.60;99.90
54832;DHT22;40730;53.068;6.572;2022-12-10T01:05:19;-1.60;99.90
54832;DHT22;40730;53.068;6.572;2022-12-10T01:07:44;-1.50;99.90
54832;DHT22;40730;53.068;6.572;2022-12-10T01:10:10;-1.50;99.90
54832;DHT22;40730;53.068;6.572;2022-12-10T01:12:35;-1.50;99.90
54832;DHT22;40730;53.068;6.572;2022-12-10T01:15:01;-1.50;99.90
54832;DHT22;40730;53.068;6.572;2022-12-10T01:17:26;-1.50;99.90
54832;DHT22;40730;53.068;6.572;2022-12-10T01:19:52;-1.50;99.90
54832;DHT22;40730;53.068;6.572;2022-12-10T01:22:18;-1.50;99.90
54832;DHT22;40730;53.068;6.572;2022-12-10T01:24:43;-1.50;99.90
54832;DHT22;40730;53.068;6.572;2022-12-10T01:27:09;-1.50;99.90
54832;DHT22;40730;53.068;6.572;2022-12-10T01:29:34;-1.60;99.90
54832;DHT22;40730;53.068;6.572;2022-12-10T01:32:00;-1.60;99.90
54832;DHT22;40730;53.068;6.572;2022-12-10T01:34:26;-1.60;99.90
54832;DHT22;40730;53.068;6.572;2022-12-10T01:36:53;-1.60;99.90
54832;DHT22;40730;53.068;6.572;2022-12-10T01:39:21;-1.60;99.90
54832;DHT22;40730;53.068;6.572;2022-12-10T01:46:42;-1.60;99.90
54832;DHT22;40730;53.068;6.572;2022-12-10T01:49:10;-1.60;99.90
54832;DHT22;40730;53.068;6.572;2022-12-10T01:51:38;-1.60;99.90
54832;DHT22;40730;53.068;6.572;2022-12-10T01:54:06;-1.60;99.90
54832;DHT22;40730;53.068;6.572;2022-12-10T01:56:36;-1.60;99.90
54832;DHT22;40730;53.068;6.572;2022-12-10T01:59:03;-1.60;99.90
54832;DHT22;40730;53.068;6.572;2022-12-10T02:01:57;-1.60;99.90
54832;DHT22;40730;53.068;6.572;2022-12-10T02:04:47;-1.60;99.90
54832;DHT22;40730;53.068;6.572;2022-12-10T02:10:46;-1.70;99.90
54832;DHT22;40730;53.068;6.572;2022-12-10T02:13:32;-1.70;99.90
54832;DHT22;40730;53.068;6.572;2022-12-10T02:18:32;-1.70;99.90
54832;DHT22;40730;53.068;6.572;2022-12-10T02:21:11;-1.70;99.90
54832;DHT22;40730;53.068;6.572;2022-12-10T02:23:45;-1.80;99.90
54832;DHT22;40730;53.068;6.572;2022-12-10T02:26:30;-1.70;99.90
54832;DHT22;40730;53.068;6.572;2022-12-10T02:31:32;-1.70;99.90
54832;DHT22;40730;53.068;6.572;2022-12-10T02:34:01;-1.70;99.90
54832;DHT22;40730;53.068;6.572;2022-12-10T02:36:31;-1.80;99.90
54832;DHT22;40730;53.068;6.572;2022-12-10T02:39:01;-1.80;99.90
54832;DHT22;40730;53.068;6.572;2022-12-10T02:41:33;-1.80;99.90
54832;DHT22;40730;53.068;6.572;2022-12-10T02:44:03;-1.80;99.90
54832;DHT22;40730;53.068;6.572;2022-12-10T02:46:30;-1.80;99.90
54832;DHT22;40730;53.068;6.572;2022-12-10T02:48:58;-1.80;99.90
54832;DHT22;40730;53.068;6.572;2022-12-10T02:51:26;-1.80;99.90
54832;DHT22;40730;53.068;6.572;2022-12-10T02:54:02;-1.90;99.90
54832;DHT22;40730;53.068;6.572;2022-12-10T02:56:36;-1.90;99.90
54832;DHT22;40730;53.068;6.572;2022-12-10T02:59:14;-1.90;99.90
54832;DHT22;40730;53.068;6.572;2022-12-10T03:07:14;-1.90;99.90
54832;DHT22;40730;53.068;6.572;2022-12-10T03:09:53;-1.90;99.90
54832;DHT22;40730;53.068;6.572;2022-12-10T03:12:35;-1.90;99.90
54832;DHT22;40730;53.068;6.572;2022-12-10T03:15:06;-1.90;99.90
54832;DHT22;40730;53.068;6.572;2022-12-10T03:17:34;-1.80;99.90
54832;DHT22;40730;53.068;6.572;2022-12-10T03:20:00;-1.80;99.90
54832;DHT22;40730;53.068;6.572;2022-12-10T03:22:28;-1.80;99.90
54832;DHT22;40730;53.068;6.572;2022-12-10T03:24:55;-1.80;99.90
54832;DHT22;40730;53.068;6.572;2022-12-10T03:27:24;-1.80;99.90
54832;DHT22;40730;53.068;6.572;2022-12-10T03:29:52;-1.80;99.90
54832;DHT22;40730;53.068;6.572;2022-12-10T03:32:24;-1.80;99.90
54832;DHT22;40730;53.068;6.572;2022-12-10T03:34:51;-1.80;99.90
54832;DHT22;40730;53.068;6.572;2022-12-10T03:37:18;-1.90;99.90
54832;DHT22;40730;53.068;6.572;2022-12-10T03:39:44;-1.90;99.90
54832;DHT22;40730;53.068;6.572;2022-12-10T03:42:09;-1.90;99.90
54832;DHT22;40730;53.068;6.572;2022-12-10T03:44:37;-1.90;99.90
54832;DHT22;40730;53.068;6.572;2022-12-10T03:47:05;-1.90;99.90
54832;DHT22;40730;53.068;6.572;2022-12-10T03:49:31;-1.90;99.90
54832;DHT22;40730;53.068;6.572;2022-12-10T03:51:57;-1.90;99.90
54832;DHT22;40730;53.068;6.572;2022-12-10T03:54:22;-1.90;99.90
54832;DHT22;40730;53.068;6.572;2022-12-10T03:56:48;-1.90;99.90
54832;DHT22;40730;53.068;6.572;2022-12-10T03:59:14;-2.00;99.90
54832;DHT22;40730;53.068;6.572;2022-12-10T04:01:40;-2.00;99.90
54832;DHT22;40730;53.068;6.572;2022-12-10T04:04:06;-2.00;99.90
54832;DHT22;40730;53.068;6.572;2022-12-10T04:06:32;-2.00;99.90
54832;DHT22;40730;53.068;6.572;2022-12-10T04:08:58;-2.00;99.90
54832;DHT22;40730;53.068;6.572;2022-12-10T04:11:23;-2.00;99.90
54832;DHT22;40730;53.068;6.572;2022-12-10T04:13:51;-2.00;99.90
54832;DHT22;40730;53.068;6.572;2022-12-10T04:16:35;-2.00;99.90
54832;DHT22;40730;53.068;6.572;2022-12-10T04:19:07;-2.00;99.90
54832;DHT22;40730;53.068;6.572;2022-12-10T04:21:34;-2.00;99.90
54832;DHT22;40730;53.068;6.572;2022-12-10T04:24:24;-2.00;99.90
54832;DHT22;40730;53.068;6.572;2022-12-10T04:27:11;-2.00;99.90
54832;DHT22;40730;53.068;6.572;2022-12-10T04:29:37;-2.10;99.90
54832;DHT22;40730;53.068;6.572;2022-12-10T04:32:03;-2.10;99.90
54832;DHT22;40730;53.068;6.572;2022-12-10T04:34:29;-2.20;99.90
54832;DHT22;40730;53.068;6.572;2022-12-10T04:36:57;-2.20;99.90
54832;DHT22;40730;53.068;6.572;2022-12-10T04:39:23;-2.20;99.90
54832;DHT22;40730;53.068;6.572;2022-12-10T04:41:49;-2.30;99.90
54832;DHT22;40730;53.068;6.572;2022-12-10T04:44:15;-2.30;99.90
54832;DHT22;40730;53.068;6.572;2022-12-10T04:46:41;-2.30;99.90
54832;DHT22;40730;53.068;6.572;2022-12-10T04:49:07;-2.30;99.90
54832;DHT22;40730;53.068;6.572;2022-12-10T04:51:33;-2.40;99.90
54832;DHT22;40730;53.068;6.572;2022-12-10T04:53:59;-2.40;99.90
54832;DHT22;40730;53.068;6.572;2022-12-10T04:56:24;-2.40;99.90
54832;DHT22;40730;53.068;6.572;2022-12-10T04:58:50;-2.40;99.90
54832;DHT22;40730;53.068;6.572;2022-12-10T05:01:17;-2.50;99.90
54832;DHT22;40730;53.068;6.572;2022-12-10T05:03:44;-2.60;99.90
54832;DHT22;40730;53.068;6.572;2022-12-10T05:06:14;-2.60;99.90
54832;DHT22;40730;53.068;6.572;2022-12-10T05:08:40;-2.70;99.90
54832;DHT22;40730;53.068;6.572;2022-12-10T05:11:12;-2.70;99.90
54832;DHT22;40730;53.068;6.572;2022-12-10T05:13:38;-2.70;99.90
54832;DHT22;40730;53.068;6.572;2022-12-10T05:16:06;-2.80;99.90
54832;DHT22;40730;53.068;6.572;2022-12-10T05:18:33;-2.80;99.90
54832;DHT22;40730;53.068;6.572;2022-12-10T05:20:59;-2.80;99.90
54832;DHT22;40730;53.068;6.572;2022-12-10T05:23:25;-2.80;99.90
54832;DHT22;40730;53.068;6.572;2022-12-10T05:26:09;-2.80;99.90
54832;DHT22;40730;53.068;6.572;2022-12-10T05:28:44;-2.80;99.90
54832;DHT22;40730;53.068;6.572;2022-12-10T05:31:15;-2.80;99.90
54832;DHT22;40730;53.068;6.572;2022-12-10T05:33:41;-2.80;99.90
54832;DHT22;40730;53.068;6.572;2022-12-10T05:36:07;-2.70;99.90
54832;DHT22;40730;53.068;6.572;2022-12-10T05:38:34;-2.70;99.90
54832;DHT22;40730;53.068;6.572;2022-12-10T05:41:02;-2.60;99.90
54832;DHT22;40730;53.068;6.572;2022-12-10T05:43:28;-2.60;99.90
54832;DHT22;40730;53.068;6.572;2022-12-10T05:45:53;-2.50;99.90
54832;DHT22;40730;53.068;6.572;2022-12-10T05:48:19;-2.50;99.90
54832;DHT22;40730;53.068;6.572;2022-12-10T05:50:45;-2.50;99.90
54832;DHT22;40730;53.068;6.572;2022-12-10T05:53:11;-2.40;99.90
54832;DHT22;40730;53.068;6.572;2022-12-10T05:55:39;-2.40;99.90
54832;DHT22;40730;53.068;6.572;2022-12-10T05:58:05;-2.40;99.90
54832;DHT22;40730;53.068;6.572;2022-12-10T06:00:30;-1.40;99.90
54832;DHT22;40730;53.068;6.572;2022-12-10T06:02:56;-2.30;99.90
54832;DHT22;40730;53.068;6.572;2022-12-10T06:05:22;-2.20;99.90
54832;DHT22;40730;53.068;6.572;2022-12-10T06:07:47;-2.20;99.90
54832;DHT22;40730;53.068;6.572;2022-12-10T06:10:13;-2.10;99.90
54832;DHT22;40730;53.068;6.572;2022-12-10T06:12:38;-2.10;99.90
54832;DHT22;40730;53.068;6.572;2022-12-10T06:15:05;-2.10;99.90
54832;DHT22;40730;53.068;6.572;2022-12-10T06:17:31;-2.10;99.90
54832;DHT22;40730;53.068;6.572;2022-12-10T06:19:57;-2.00;99.90
54832;DHT22;40730;53.068;6.572;2022-12-10T06:22:22;-2.00;99.90
54832;DHT22;40730;53.068;6.572;2022-12-10T06:24:48;-2.00;99.90
54832;DHT22;40730;53.068;6.572;2022-12-10T06:27:13;-2.10;99.90
54832;DHT22;40730;53.068;6.572;2022-12-10T06:29:40;-2.10;99.90
54832;DHT22;40730;53.068;6.572;2022-12-10T06:32:05;-2.00;99.90
54832;DHT22;40730;53.068;6.572;2022-12-10T06:34:31;-2.00;99.90
54832;DHT22;40730;53.068;6.572;2022-12-10T06:36:56;-2.10;99.90
54832;DHT22;40730;53.068;6.572;2022-12-10T06:39:22;-2.10;99.90
54832;DHT22;40730;53.068;6.572;2022-12-10T06:41:47;-2.10;99.90
54832;DHT22;40730;53.068;6.572;2022-12-10T06:44:13;-2.10;99.90
54832;DHT22;40730;53.068;6.572;2022-12-10T06:46:42;-2.10;99.90
54832;DHT22;40730;53.068;6.572;2022-12-10T06:49:07;-2.10;99.90
54832;DHT22;40730;53.068;6.572;2022-12-10T06:51:34;-2.10;99.90
54832;DHT22;40730;53.068;6.572;2022-12-10T06:53:59;-2.10;99.90
54832;DHT22;40730;53.068;6.572;2022-12-10T06:56:25;-2.10;99.90
54832;DHT22;40730;53.068;6.572;2022-12-10T06:58:50;-2.10;99.90
54832;DHT22;40730;53.068;6.572;2022-12-10T07:01:24;-2.10;99.90
54832;DHT22;40730;53.068;6.572;2022-12-10T07:03:54;-2.10;99.90
54832;DHT22;40730;53.068;6.572;2022-12-10T07:06:22;-2.10;99.90
54832;DHT22;40730;53.068;6.572;2022-12-10T07:08:49;-2.10;99.90
54832;DHT22;40730;53.068;6.572;2022-12-10T07:11:17;-2.10;99.90
54832;DHT22;40730;53.068;6.572;2022-12-10T07:13:43;-2.10;99.90
54832;DHT22;40730;53.068;6.572;2022-12-10T07:16:17;-2.10;99.90
54832;DHT22;40730;53.068;6.572;2022-12-10T07:18:43;-2.00;99.90
54832;DHT22;40730;53.068;6.572;2022-12-10T07:23:46;-2.00;99.90
54832;DHT22;40730;53.068;6.572;2022-12-10T07:26:11;-2.00;99.90
54832;DHT22;40730;53.068;6.572;2022-12-10T07:28:37;-2.00;99.90
54832;DHT22;40730;53.068;6.572;2022-12-10T07:31:04;-2.00;99.90
54832;DHT22;40730;53.068;6.572;2022-12-10T07:33:30;-2.00;99.90
54832;DHT22;40730;53.068;6.572;2022-12-10T07:35:55;-2.00;99.90
54832;DHT22;40730;53.068;6.572;2022-12-10T07:38:23;-2.00;99.90
54832;DHT22;40730;53.068;6.572;2022-12-10T07:40:50;-2.00;99.90
54832;DHT22;40730;53.068;6.572;2022-12-10T07:43:16;-2.00;99.90
54832;DHT22;40730;53.068;6.572;2022-12-10T07:45:41;-2.00;99.90
54832;DHT22;40730;53.068;6.572;2022-12-10T07:48:07;-2.00;99.90
54832;DHT22;40730;53.068;6.572;2022-12-10T07:50:33;-2.00;99.90
54832;DHT22;40730;53.068;6.572;2022-12-10T07:52:58;-2.00;99.90
54832;DHT22;40730;53.068;6.572;2022-12-10T07:55:24;-2.00;99.90
54832;DHT22;40730;53.068;6.572;2022-12-10T07:57:50;-2.00;99.90
54832;DHT22;40730;53.068;6.572;2022-12-10T08:00:15;-2.00;99.90
54832;DHT22;40730;53.068;6.572;2022-12-10T08:02:41;-2.00;99.90
54832;DHT22;40730;53.068;6.572;2022-12-10T08:05:07;-2.00;99.90
54832;DHT22;40730;53.068;6.572;2022-12-10T08:07:33;-2.00;99.90
54832;DHT22;40730;53.068;6.572;2022-12-10T08:09:59;-2.00;99.90
54832;DHT22;40730;53.068;6.572;2022-12-10T08:12:24;-2.00;99.90
54832;DHT22;40730;53.068;6.572;2022-12-10T08:14:50;-2.00;99.90
54832;DHT22;40730;53.068;6.572;2022-12-10T08:17:15;-2.00;99.90
54832;DHT22;40730;53.068;6.572;2022-12-10T08:19:41;-2.00;99.90
54832;DHT22;40730;53.068;6.572;2022-12-10T08:22:07;-1.90;99.90
54832;DHT22;40730;53.068;6.572;2022-12-10T08:24:32;-1.90;99.90
54832;DHT22;40730;53.068;6.572;2022-12-10T08:26:58;-1.90;99.90
54832;DHT22;40730;53.068;6.572;2022-12-10T08:29:23;-1.90;99.90
54832;DHT22;40730;53.068;6.572;2022-12-10T08:31:49;-1.80;99.90
54832;DHT22;40730;53.068;6.572;2022-12-10T08:34:17;-1.80;99.90
54832;DHT22;40730;53.068;6.572;2022-12-10T08:36:43;-1.80;99.90
54832;DHT22;40730;53.068;6.572;2022-12-10T08:39:09;-1.80;99.90
54832;DHT22;40730;53.068;6.572;2022-12-10T08:41:36;-1.80;99.90
54832;DHT22;40730;53.068;6.572;2022-12-10T08:44:01;-1.70;99.90
54832;DHT22;40730;53.068;6.572;2022-12-10T08:46:27;-1.80;99.90
54832;DHT22;40730;53.068;6.572;2022-12-10T08:48:54;-1.70;99.90
54832;DHT22;40730;53.068;6.572;2022-12-10T08:51:20;-1.70;99.90
54832;DHT22;40730;53.068;6.572;2022-12-10T08:53:46;-1.70;99.90
54832;DHT22;40730;53.068;6.572;2022-12-10T08:56:12;-1.70;99.90
54832;DHT22;40730;53.068;6.572;2022-12-10T08:58:38;-1.70;99.90
54832;DHT22;40730;53.068;6.572;2022-12-10T09:01:13;-1.70;99.90
54832;DHT22;40730;53.068;6.572;2022-12-10T09:03:39;-1.70;99.90
54832;DHT22;40730;53.068;6.572;2022-12-10T09:06:11;-1.60;99.90
54832;DHT22;40730;53.068;6.572;2022-12-10T09:08:37;-1.70;99.90
54832;DHT22;40730;53.068;6.572;2022-12-10T09:11:07;-1.60;99.90
54832;DHT22;40730;53.068;6.572;2022-12-10T09:13:33;-1.60;99.90
54832;DHT22;40730;53.068;6.572;2022-12-10T09:15:59;-1.60;99.90
54832;DHT22;40730;53.068;6.572;2022-12-10T09:18:25;-1.60;99.90
54832;DHT22;40730;53.068;6.572;2022-12-10T09:20:50;-1.60;99.90
54832;DHT22;40730;53.068;6.572;2022-12-10T09:23:16;-1.60;99.90
54832;DHT22;40730;53.068;6.572;2022-12-10T09:25:42;-1.60;99.90
54832;DHT22;40730;53.068;6.572;2022-12-10T09:28:07;-1.60;99.90
54832;DHT22;40730;53.068;6.572;2022-12-10T09:30:33;-1.60;99.90
54832;DHT22;40730;53.068;6.572;2022-12-10T09:32:59;-1.60;99.90
54832;DHT22;40730;53.068;6.572;2022-12-10T09:35:24;-1.60;99.90
54832;DHT22;40730;53.068;6.572;2022-12-10T09:37:50;-1.60;99.90
54832;DHT22;40730;53.068;6.572;2022-12-10T09:40:17;-1.60;99.90
54832;DHT22;40730;53.068;6.572;2022-12-10T09:42:55;-1.60;99.90
54832;DHT22;40730;53.068;6.572;2022-12-10T09:45:49;-1.60;99.90
54832;DHT22;40730;53.068;6.572;2022-12-10T09:48:32;-1.60;99.90
54832;DHT22;40730;53.068;6.572;2022-12-10T09:51:23;-1.60;99.90
54832;DHT22;40730;53.068;6.572;2022-12-10T09:53:51;-1.60;99.90
54832;DHT22;40730;53.068;6.572;2022-12-10T09:56:30;-1.50;99.90
54832;DHT22;40730;53.068;6.572;2022-12-10T09:59:01;-1.50;99.90
54832;DHT22;40730;53.068;6.572;2022-12-10T10:01:29;-1.50;99.90
54832;DHT22;40730;53.068;6.572;2022-12-10T10:03:56;-1.50;99.90
54832;DHT22;40730;53.068;6.572;2022-12-10T10:06:24;-1.50;99.90
54832;DHT22;40730;53.068;6.572;2022-12-10T10:08:54;-1.40;99.90
54832;DHT22;40730;53.068;6.572;2022-12-10T10:11:28;-1.40;99.90
54832;DHT22;40730;53.068;6.572;2022-12-10T10:14:24;-1.40;99.90
54832;DHT22;40730;53.068;6.572;2022-12-10T10:16:54;-1.40;99.90
54832;DHT22;40730;53.068;6.572;2022-12-10T10:19:29;-1.40;99.90
54832;DHT22;40730;53.068;6.572;2022-12-10T10:21:56;-1.30;99.90
54832;DHT22;40730;53.068;6.572;2022-12-10T10:24:33;-1.40;99.90
54832;DHT22;40730;53.068;6.572;2022-12-10T10:27:14;-1.30;99.90
54832;DHT22;40730;53.068;6.572;2022-12-10T10:29:44;-1.30;99.90
54832;DHT22;40730;53.068;6.572;2022-12-10T10:32:20;-1.20;99.90
54832;DHT22;40730;53.068;6.572;2022-12-10T10:34:53;-1.30;99.90
54832;DHT22;40730;53.068;6.572;2022-12-10T10:37:22;-1.20;99.90
54832;DHT22;40730;53.068;6.572;2022-12-10T10:39:51;-1.10;99.90
54832;DHT22;40730;53.068;6.572;2022-12-10T10:44:57;-1.00;99.90
54832;DHT22;40730;53.068;6.572;2022-12-10T10:49:50;-1.00;99.90
54832;DHT22;40730;53.068;6.572;2022-12-10T10:52:17;-1.00;99.90
54832;DHT22;40730;53.068;6.572;2022-12-10T10:54:44;-0.90;99.90
54832;DHT22;40730;53.068;6.572;2022-12-10T10:59:45;-0.90;99.90
54832;DHT22;40730;53.068;6.572;2022-12-10T11:07:38;-0.90;99.90
54832;DHT22;40730;53.068;6.572;2022-12-10T11:10:17;-0.90;99.90
54832;DHT22;40730;53.068;6.572;2022-12-10T11:12:46;-0.90;99.90
54832;DHT22;40730;53.068;6.572;2022-12-10T11:17:54;-0.90;99.90
54832;DHT22;40730;53.068;6.572;2022-12-10T11:20:27;-0.90;99.90
54832;DHT22;40730;53.068;6.572;2022-12-10T11:22:58;-0.80;99.90
54832;DHT22;40730;53.068;6.572;2022-12-10T11:28:32;-0.70;99.90
54832;DHT22;40730;53.068;6.572;2022-12-10T11:41:53;-0.80;99.90
54832;DHT22;40730;53.068;6.572;2022-12-10T11:47:26;-0.80;99.90
54832;DHT22;40730;53.068;6.572;2022-12-10T11:52:54;-0.80;99.90
54832;DHT22;40730;53.068;6.572;2022-12-10T12:00:59;-0.80;99.90
54832;DHT22;40730;53.068;6.572;2022-12-10T12:03:35;-0.80;99.90
54832;DHT22;40730;53.068;6.572;2022-12-10T12:14:36;-0.70;99.90
54832;DHT22;40730;53.068;6.572;2022-12-10T12:17:25;-0.70;99.90
54832;DHT22;40730;53.068;6.572;2022-12-10T12:22:23;-0.70;99.90
54832;DHT22;40730;53.068;6.572;2022-12-10T12:24:55;-0.70;99.90
54832;DHT22;40730;53.068;6.572;2022-12-10T12:27:35;-0.70;99.90
54832;DHT22;40730;53.068;6.572;2022-12-10T12:30:13;-0.70;99.90
54832;DHT22;40730;53.068;6.572;2022-12-10T12:33:10;-0.70;99.90
54832;DHT22;40730;53.068;6.572;2022-12-10T12:35:49;-0.70;99.90
54832;DHT22;40730;53.068;6.572;2022-12-10T12:38:29;-0.70;99.90
54832;DHT22;40730;53.068;6.572;2022-12-10T12:41:01;-0.70;99.90
54832;DHT22;40730;53.068;6.572;2022-12-10T12:46:09;-0.60;99.90
54832;DHT22;40730;53.068;6.572;2022-12-10T12:48:41;-0.60;99.90
54832;DHT22;40730;53.068;6.572;2022-12-10T12:51:19;-0.60;99.90
54832;DHT22;40730;53.068;6.572;2022-12-10T12:53:46;-0.50;99.90
54832;DHT22;40730;53.068;6.572;2022-12-10T12:59:36;-0.50;99.90
54832;DHT22;40730;53.068;6.572;2022-12-10T13:04:43;-0.50;99.90
54832;DHT22;40730;53.068;6.572;2022-12-10T13:07:34;-0.60;99.90
54832;DHT22;40730;53.068;6.572;2022-12-10T13:12:44;-0.60;99.90
54832;DHT22;40730;53.068;6.572;2022-12-10T13:15:33;-0.60;99.90
54832;DHT22;40730;53.068;6.572;2022-12-10T13:23:51;-0.60;99.90
54832;DHT22;40730;53.068;6.572;2022-12-10T13:26:28;-0.70;99.90
54832;DHT22;40730;53.068;6.572;2022-12-10T13:28:57;-0.60;99.90
54832;DHT22;40730;53.068;6.572;2022-12-10T13:31:37;-0.60;99.90
54832;DHT22;40730;53.068;6.572;2022-12-10T13:41:41;-0.50;99.90
54832;DHT22;40730;53.068;6.572;2022-12-10T13:50:06;-0.60;99.90
54832;DHT22;40730;53.068;6.572;2022-12-10T13:53:03;-0.60;99.90
54832;DHT22;40730;53.068;6.572;2022-12-10T14:01:23;-0.50;99.90
54832;DHT22;40730;53.068;6.572;2022-12-10T14:06:37;-0.60;99.90
54832;DHT22;40730;53.068;6.572;2022-12-10T14:09:14;-0.50;99.90
54832;DHT22;40730;53.068;6.572;2022-12-10T14:11:53;-0.60;99.90
54832;DHT22;40730;53.068;6.572;2022-12-10T14:14:30;-0.60;99.90
54832;DHT22;40730;53.068;6.572;2022-12-10T14:17:04;-0.60;99.90
54832;DHT22;40730;53.068;6.572;2022-12-10T14:19:30;-0.60;99.90
54832;DHT22;40730;53.068;6.572;2022-12-10T14:21:56;-0.60;99.90
54832;DHT22;40730;53.068;6.572;2022-12-10T14:24:40;-0.60;99.90
54832;DHT22;40730;53.068;6.572;2022-12-10T14:27:18;-0.60;99.90
54832;DHT22;40730;53.068;6.572;2022-12-10T14:29:48;-0.60;99.90
54832;DHT22;40730;53.068;6.572;2022-12-10T14:32:16;-0.60;99.90
54832;DHT22;40730;53.068;6.572;2022-12-10T14:34:46;-0.60;99.90
54832;DHT22;40730;53.068;6.572;2022-12-10T14:37:14;-0.60;99.90
54832;DHT22;40730;53.068;6.572;2022-12-10T14:39:40;-0.50;99.90
54832;DHT22;40730;53.068;6.572;2022-12-10T14:42:06;-0.60;99.90
54832;DHT22;40730;53.068;6.572;2022-12-10T14:44:38;-0.60;99.90
54832;DHT22;40730;53.068;6.572;2022-12-10T14:47:18;-0.50;99.90
54832;DHT22;40730;53.068;6.572;2022-12-10T14:49:49;-0.60;99.90
54832;DHT22;40730;53.068;6.572;2022-12-10T14:52:21;-0.60;99.90
54832;DHT22;40730;53.068;6.572;2022-12-10T14:54:47;-0.60;99.90
54832;DHT22;40730;53.068;6.572;2022-12-10T14:57:40;-0.50;99.90
54832;DHT22;40730;53.068;6.572;2022-12-10T15:00:18;-0.60;99.90
54832;DHT22;40730;53.068;6.572;2022-12-10T15:02:53;-0.50;99.90
54832;DHT22;40730;53.068;6.572;2022-12-10T15:05:28;-0.60;99.90
54832;DHT22;40730;53.068;6.572;2022-12-10T15:10:28;-0.60;99.90
54832;DHT22;40730;53.068;6.572;2022-12-10T15:12:57;-0.50;99.90
54832;DHT22;40730;53.068;6.572;2022-12-10T15:20:31;-0.60;99.90
54832;DHT22;40730;53.068;6.572;2022-12-10T15:23:38;-0.50;99.90
54832;DHT22;40730;53.068;6.572;2022-12-10T15:28:44;-0.60;99.90
54832;DHT22;40730;53.068;6.572;2022-12-10T15:33:54;-0.50;99.90
54832;DHT22;40730;53.068;6.572;2022-12-10T15:38:55;-0.50;99.90
54832;DHT22;40730;53.068;6.572;2022-12-10T15:41:48;-0.50;99.90
54832;DHT22;40730;53.068;6.572;2022-12-10T15:44:37;-0.50;99.90
54832;DHT22;40730;53.068;6.572;2022-12-10T15:49:39;-0.50;99.90
54832;DHT22;40730;53.068;6.572;2022-12-10T15:52:04;-0.50;99.90
54832;DHT22;40730;53.068;6.572;2022-12-10T15:54:35;-0.40;99.90
54832;DHT22;40730;53.068;6.572;2022-12-10T15:57:30;-0.50;99.90
54832;DHT22;40730;53.068;6.572;2022-12-10T16:00:03;-0.50;99.90
54832;DHT22;40730;53.068;6.572;2022-12-10T16:05:18;-0.40;99.90
54832;DHT22;40730;53.068;6.572;2022-12-10T16:07:46;-0.50;99.90
54832;DHT22;40730;53.068;6.572;2022-12-10T16:10:14;-0.50;99.90
54832;DHT22;40730;53.068;6.572;2022-12-10T16:12:40;-0.40;99.90
54832;DHT22;40730;53.068;6.572;2022-12-10T16:15:11;-0.50;99.90
54832;DHT22;40730;53.068;6.572;2022-12-10T16:17:37;-0.50;99.90
54832;DHT22;40730;53.068;6.572;2022-12-10T16:20:24;-0.50;99.90
54832;DHT22;40730;53.068;6.572;2022-12-10T16:22:55;-0.50;99.90
54832;DHT22;40730;53.068;6.572;2022-12-10T16:25:22;-0.50;99.90
54832;DHT22;40730;53.068;6.572;2022-12-10T16:27:48;-0.50;99.90
54832;DHT22;40730;53.068;6.572;2022-12-10T16:32:40;-0.50;99.90
54832;DHT22;40730;53.068;6.572;2022-12-10T16:35:07;-0.50;99.90
54832;DHT22;40730;53.068;6.572;2022-12-10T16:37:32;-0.50;99.90
54832;DHT22;40730;53.068;6.572;2022-12-10T16:39:58;-0.50;99.90
54832;DHT22;40730;53.068;6.572;2022-12-10T16:42:24;-0.50;99.90
54832;DHT22;40730;53.068;6.572;2022-12-10T16:44:50;-0.50;99.90
54832;DHT22;40730;53.068;6.572;2022-12-10T16:47:15;-0.50;99.90
54832;DHT22;40730;53.068;6.572;2022-12-10T16:49:41;-0.50;99.90
54832;DHT22;40730;53.068;6.572;2022-12-10T16:52:11;-0.50;99.90
54832;DHT22;40730;53.068;6.572;2022-12-10T16:54:37;-0.60;99.90
54832;DHT22;40730;53.068;6.572;2022-12-10T16:57:09;-0.60;99.90
54832;DHT22;40730;53.068;6.572;2022-12-10T16:59:35;-0.70;99.90
54832;DHT22;40730;53.068;6.572;2022-12-10T17:02:01;-0.60;99.90
54832;DHT22;40730;53.068;6.572;2022-12-10T17:04:26;-0.70;99.90
54832;DHT22;40730;53.068;6.572;2022-12-10T17:06:52;-0.60;99.90
54832;DHT22;40730;53.068;6.572;2022-12-10T17:09:18;-0.60;99.90
54832;DHT22;40730;53.068;6.572;2022-12-10T17:11:44;-0.60;99.90
54832;DHT22;40730;53.068;6.572;2022-12-10T17:16:43;-0.60;99.90
54832;DHT22;40730;53.068;6.572;2022-12-10T17:19:12;-0.60;99.90
54832;DHT22;40730;53.068;6.572;2022-12-10T17:21:38;-0.60;99.90
54832;DHT22;40730;53.068;6.572;2022-12-10T17:24:03;-0.60;99.90
54832;DHT22;40730;53.068;6.572;2022-12-10T17:26:31;-0.60;99.90
54832;DHT22;40730;53.068;6.572;2022-12-10T17:29:04;-0.60;99.90
54832;DHT22;40730;53.068;6.572;2022-12-10T17:31:30;-0.70;99.90
54832;DHT22;40730;53.068;6.572;2022-12-10T17:33:56;-0.70;99.90
54832;DHT22;40730;53.068;6.572;2022-12-10T17:36:22;-0.70;99.90
54832;DHT22;40730;53.068;6.572;2022-12-10T17:38:47;-0.70;99.90
54832;DHT22;40730;53.068;6.572;2022-12-10T17:41:13;-0.70;99.90
54832;DHT22;40730;53.068;6.572;2022-12-10T17:43:41;-0.80;99.90
54832;DHT22;40730;53.068;6.572;2022-12-10T17:46:10;-0.80;99.90
54832;DHT22;40730;53.068;6.572;2022-12-10T17:48:36;-0.70;99.90
54832;DHT22;40730;53.068;6.572;2022-12-10T17:51:02;-0.80;99.90
54832;DHT22;40730;53.068;6.572;2022-12-10T17:53:28;-0.80;99.90
54832;DHT22;40730;53.068;6.572;2022-12-10T17:55:58;-0.80;99.90
54832;DHT22;40730;53.068;6.572;2022-12-10T17:58:25;-0.80;99.90
54832;DHT22;40730;53.068;6.572;2022-12-10T18:00:52;-0.80;99.90
54832;DHT22;40730;53.068;6.572;2022-12-10T18:03:18;-0.80;99.90